ENAL/AES METAR and TAF weather

Enter ICAO airport designator
Station Type Date Time Source
ENAL METAR 2019/08/22 03:50 UTC NOAA

ENAL 220350Z AUTO 13011KT 9999 FEW120/// 12/08 Q1016


Station Type Date Time Source
ENAL Decoded METAR 2019/08/22 03:50 UTC NOAA

Station name not available
Aug 21, 2019 - 11:50 PM EDT / 2019.08.22 0350 UTC
Wind: from the SE (130 degrees) at 13 MPH (11 KT):0
Visibility: greater than 7 mile(s):0
Sky conditions: mostly clear
Temperature: 53 F (12 C)
Dew Point: 46 F (8 C)
Relative Humidity: 76%
Pressure (altimeter): 30.00 in. Hg (1016 hPa)
ob: ENAL 220350Z AUTO 13011KT 9999 FEW120/// 12/08 Q1016
cycle: 4

Station Type Date Time Source
ENAL TAF UTC NOAA

Error!

Example: see airport list